New Richmond Regional Airport
KRNH : rendu visible

Aérodrome :











RETROUVEZ-NOUS SUR...

 
LOGIN :

S'inscrire | Disclaimer

   EN    FR    IT 

 









Légende :    VFR   VFR Marginal   IFR   IFR Intensif   IFR Très Intensif
Visi : 
Plafond : 
>= 8 km
>= 3000ft
5 à 8 km
1000 à 3000 ft
1500m à 5 km
500 à 1000 ft
800 à 1500m
200 à 500 ft
< 800m
< 200 ft
Symboles :   Orages  Brouillard  Fortes neiges  Fortes précipitations  Vent > 20 kt






- Altitude de l'aérodrome : 998 ft


KRNH - New Richmond Regional

DERNIER METAR :
  • 040255Z AUTO 31008KT 10SM OVC019 M03/M06 A3020 RMK AO2 T10281060

METARs EXPIRÉS :
  • 040235Z AUTO 31008KT 10SM OVC019 M03/M06 A3019 RMK AO2 T10271062
  • 040215Z AUTO 32013KT 10SM OVC019 M03/M06 A3019 RMK AO2 T10271062
  • 040155Z AUTO 31012G15KT 10SM OVC019 M03/M06 A3019 RMK AO2 T10271060
  • 040135Z AUTO 30012KT 10SM OVC019 M03/M06 A3018 RMK AO2 T10271060
  • 040115Z AUTO 30010KT 10SM OVC019 M03/M06 A3018 RMK AO2 T10261057
  • 040055Z AUTO 31010KT 10SM OVC017 M02/M06 A3017 RMK AO2 T10251056
  • 040035Z AUTO 30008KT 10SM OVC017 M02/M06 A3017 RMK AO2 T10251056
  • 040015Z AUTO 30013KT 10SM OVC017 M02/M05 A3016 RMK AO2 T10251054

TAF KRNH
Valide du 04 à 03h jusqu'au 05 à 00h UTC


040308Z 0403/0424 31008KT P6SM OVC020
FM040500 32006KT P6SM SKC
FM042100 10004KT P6SM SKC



MET'MAP, la Météo Aéronautique d'un coup d'oeil ! - Copyright ORBIFLY Décembre 2007 - Disclaimer

ORBIFLY MET'MAP TEAM :

Programmation & Développement : Alexandra Zaïnal
Sur une idée originale de : Baudouin d'Aumeries
Assistance à la programmation : Marc-Olivier Méhu
Soutien technique & logistique : Manuel Goepfert

Contact : metmap@orbifly.com




SOURCES & CREDITS :

   NOAA       Earth
Advisory